sensor_id;sensor_type;location;lat;lon;timestamp;P1;durP1;ratioP1;P2;durP2;ratioP2
16506;SDS011;8366;51.020;7.642;2024-01-16T00:00:38;9.83;;;6.23;;
16506;SDS011;8366;51.020;7.642;2024-01-16T00:03:04;15.47;;;6.60;;
16506;SDS011;8366;51.020;7.642;2024-01-16T00:05:31;10.47;;;6.07;;
16506;SDS011;8366;51.020;7.642;2024-01-16T00:07:57;11.87;;;6.50;;
16506;SDS011;8366;51.020;7.642;2024-01-16T00:10:25;9.90;;;6.27;;
16506;SDS011;8366;51.020;7.642;2024-01-16T00:12:52;8.40;;;4.53;;
16506;SDS011;8366;51.020;7.642;2024-01-16T00:15:19;12.10;;;6.63;;
16506;SDS011;8366;51.020;7.642;2024-01-16T00:17:45;9.50;;;6.47;;
16506;SDS011;8366;51.020;7.642;2024-01-16T00:20:12;13.20;;;6.50;;
16506;SDS011;8366;51.020;7.642;2024-01-16T00:22:38;10.53;;;7.40;;
16506;SDS011;8366;51.020;7.642;2024-01-16T00:25:05;11.33;;;6.63;;
16506;SDS011;8366;51.020;7.642;2024-01-16T00:27:33;14.77;;;6.40;;
16506;SDS011;8366;51.020;7.642;2024-01-16T00:30:00;10.20;;;5.93;;
16506;SDS011;8366;51.020;7.642;2024-01-16T00:32:27;12.43;;;5.93;;
16506;SDS011;8366;51.020;7.642;2024-01-16T00:34:53;9.47;;;5.50;;
16506;SDS011;8366;51.020;7.642;2024-01-16T00:37:20;10.53;;;5.90;;
16506;SDS011;8366;51.020;7.642;2024-01-16T00:39:46;11.27;;;5.93;;
16506;SDS011;8366;51.020;7.642;2024-01-16T00:42:13;12.67;;;6.00;;
16506;SDS011;8366;51.020;7.642;2024-01-16T00:44:39;9.93;;;6.47;;
16506;SDS011;8366;51.020;7.642;2024-01-16T00:47:07;10.10;;;6.23;;
16506;SDS011;8366;51.020;7.642;2024-01-16T00:49:35;12.63;;;6.23;;
16506;SDS011;8366;51.020;7.642;2024-01-16T00:52:01;9.50;;;5.33;;
16506;SDS011;8366;51.020;7.642;2024-01-16T00:54:28;8.63;;;5.03;;
16506;SDS011;8366;51.020;7.642;2024-01-16T00:56:55;11.80;;;5.83;;
16506;SDS011;8366;51.020;7.642;2024-01-16T00:59:24;10.47;;;5.80;;
16506;SDS011;8366;51.020;7.642;2024-01-16T01:01:51;11.43;;;5.67;;
16506;SDS011;8366;51.020;7.642;2024-01-16T01:04:19;9.23;;;5.77;;
16506;SDS011;8366;51.020;7.642;2024-01-16T01:06:45;8.90;;;5.50;;
16506;SDS011;8366;51.020;7.642;2024-01-16T01:09:12;8.67;;;5.63;;
16506;SDS011;8366;51.020;7.642;2024-01-16T01:11:38;6.80;;;4.27;;
16506;SDS011;8366;51.020;7.642;2024-01-16T01:14:05;8.53;;;5.27;;
16506;SDS011;8366;51.020;7.642;2024-01-16T01:16:32;10.77;;;6.00;;
16506;SDS011;8366;51.020;7.642;2024-01-16T01:18:59;8.30;;;5.23;;
16506;SDS011;8366;51.020;7.642;2024-01-16T01:21:27;10.07;;;6.03;;
16506;SDS011;8366;51.020;7.642;2024-01-16T01:23:53;9.07;;;5.83;;
16506;SDS011;8366;51.020;7.642;2024-01-16T01:26:20;8.03;;;4.23;;
16506;SDS011;8366;51.020;7.642;2024-01-16T01:28:46;8.90;;;5.23;;
16506;SDS011;8366;51.020;7.642;2024-01-16T01:31:13;10.57;;;6.27;;
16506;SDS011;8366;51.020;7.642;2024-01-16T01:33:39;13.70;;;5.70;;
16506;SDS011;8366;51.020;7.642;2024-01-16T01:36:06;12.40;;;6.80;;
16506;SDS011;8366;51.020;7.642;2024-01-16T01:38:34;14.63;;;6.73;;
16506;SDS011;8366;51.020;7.642;2024-01-16T01:41:00;14.27;;;6.43;;
16506;SDS011;8366;51.020;7.642;2024-01-16T01:43:27;14.77;;;7.07;;
16506;SDS011;8366;51.020;7.642;2024-01-16T01:45:56;10.53;;;6.70;;
16506;SDS011;8366;51.020;7.642;2024-01-16T01:48:34;9.37;;;6.10;;
16506;SDS011;8366;51.020;7.642;2024-01-16T01:51:01;12.13;;;6.60;;
16506;SDS011;8366;51.020;7.642;2024-01-16T01:53:28;8.47;;;5.80;;
16506;SDS011;8366;51.020;7.642;2024-01-16T01:55:56;12.73;;;6.40;;
16506;SDS011;8366;51.020;7.642;2024-01-16T01:58:23;9.90;;;7.00;;
16506;SDS011;8366;51.020;7.642;2024-01-16T02:00:49;11.33;;;6.27;;
16506;SDS011;8366;51.020;7.642;2024-01-16T02:03:16;8.57;;;5.93;;
16506;SDS011;8366;51.020;7.642;2024-01-16T02:05:43;9.10;;;5.93;;
16506;SDS011;8366;51.020;7.642;2024-01-16T02:08:10;11.03;;;5.97;;
16506;SDS011;8366;51.020;7.642;2024-01-16T02:10:37;14.50;;;7.00;;
16506;SDS011;8366;51.020;7.642;2024-01-16T02:13:09;9.40;;;6.03;;
16506;SDS011;8366;51.020;7.642;2024-01-16T02:15:35;12.73;;;6.83;;
16506;SDS011;8366;51.020;7.642;2024-01-16T02:18:04;9.20;;;6.07;;
16506;SDS011;8366;51.020;7.642;2024-01-16T02:20:31;12.20;;;7.07;;
16506;SDS011;8366;51.020;7.642;2024-01-16T02:22:59;13.70;;;6.83;;
16506;SDS011;8366;51.020;7.642;2024-01-16T02:25:27;12.20;;;7.03;;
16506;SDS011;8366;51.020;7.642;2024-01-16T02:27:54;9.20;;;5.87;;
16506;SDS011;8366;51.020;7.642;2024-01-16T02:30:20;12.10;;;6.20;;
16506;SDS011;8366;51.020;7.642;2024-01-16T02:32:47;14.33;;;6.30;;
16506;SDS011;8366;51.020;7.642;2024-01-16T02:35:13;13.73;;;6.40;;
16506;SDS011;8366;51.020;7.642;2024-01-16T02:37:40;11.70;;;7.23;;
16506;SDS011;8366;51.020;7.642;2024-01-16T02:40:07;10.87;;;6.57;;
16506;SDS011;8366;51.020;7.642;2024-01-16T02:42:36;9.73;;;5.93;;
16506;SDS011;8366;51.020;7.642;2024-01-16T02:45:03;14.30;;;6.13;;
16506;SDS011;8366;51.020;7.642;2024-01-16T02:47:30;14.97;;;6.70;;
16506;SDS011;8366;51.020;7.642;2024-01-16T02:49:56;10.90;;;6.93;;
16506;SDS011;8366;51.020;7.642;2024-01-16T02:52:24;14.70;;;7.67;;
16506;SDS011;8366;51.020;7.642;2024-01-16T02:54:50;14.50;;;7.20;;
16506;SDS011;8366;51.020;7.642;2024-01-16T02:57:17;11.53;;;6.60;;
16506;SDS011;8366;51.020;7.642;2024-01-16T02:59:45;10.93;;;6.90;;
16506;SDS011;8366;51.020;7.642;2024-01-16T03:02:11;14.00;;;8.00;;
16506;SDS011;8366;51.020;7.642;2024-01-16T03:04:38;15.27;;;7.17;;
16506;SDS011;8366;51.020;7.642;2024-01-16T03:07:05;9.90;;;6.77;;
16506;SDS011;8366;51.020;7.642;2024-01-16T03:09:31;13.20;;;7.23;;
16506;SDS011;8366;51.020;7.642;2024-01-16T03:11:58;12.10;;;7.60;;
16506;SDS011;8366;51.020;7.642;2024-01-16T03:14:24;15.50;;;7.40;;
16506;SDS011;8366;51.020;7.642;2024-01-16T03:16:52;11.90;;;6.03;;
16506;SDS011;8366;51.020;7.642;2024-01-16T03:19:19;12.40;;;8.13;;
16506;SDS011;8366;51.020;7.642;2024-01-16T03:21:45;16.37;;;8.60;;
16506;SDS011;8366;51.020;7.642;2024-01-16T03:24:11;14.30;;;8.83;;
16506;SDS011;8366;51.020;7.642;2024-01-16T03:26:38;14.67;;;9.10;;
16506;SDS011;8366;51.020;7.642;2024-01-16T03:29:05;14.60;;;9.47;;
16506;SDS011;8366;51.020;7.642;2024-01-16T03:31:31;15.93;;;9.53;;
16506;SDS011;8366;51.020;7.642;2024-01-16T03:33:59;18.40;;;9.90;;
16506;SDS011;8366;51.020;7.642;2024-01-16T03:36:27;19.37;;;9.40;;
16506;SDS011;8366;51.020;7.642;2024-01-16T03:38:52;20.00;;;10.77;;
16506;SDS011;8366;51.020;7.642;2024-01-16T03:41:19;16.37;;;9.63;;
16506;SDS011;8366;51.020;7.642;2024-01-16T03:43:45;9.90;;;7.63;;
16506;SDS011;8366;51.020;7.642;2024-01-16T03:46:12;17.90;;;9.67;;
16506;SDS011;8366;51.020;7.642;2024-01-16T03:48:38;12.53;;;8.90;;
16506;SDS011;8366;51.020;7.642;2024-01-16T03:51:06;14.33;;;9.20;;
16506;SDS011;8366;51.020;7.642;2024-01-16T03:53:32;15.07;;;10.20;;
16506;SDS011;8366;51.020;7.642;2024-01-16T03:55:59;15.63;;;10.10;;
16506;SDS011;8366;51.020;7.642;2024-01-16T03:58:25;14.60;;;10.27;;
16506;SDS011;8366;51.020;7.642;2024-01-16T04:00:52;12.73;;;9.90;;
16506;SDS011;8366;51.020;7.642;2024-01-16T04:03:18;16.50;;;10.30;;
16506;SDS011;8366;51.020;7.642;2024-01-16T04:05:45;14.83;;;10.50;;
16506;SDS011;8366;51.020;7.642;2024-01-16T04:08:13;9.73;;;7.93;;
16506;SDS011;8366;51.020;7.642;2024-01-16T04:10:39;16.37;;;9.10;;
16506;SDS011;8366;51.020;7.642;2024-01-16T04:13:07;17.40;;;11.07;;
16506;SDS011;8366;51.020;7.642;2024-01-16T04:15:33;14.63;;;9.73;;
16506;SDS011;8366;51.020;7.642;2024-01-16T04:18:00;17.80;;;11.40;;
16506;SDS011;8366;51.020;7.642;2024-01-16T04:20:26;15.23;;;10.90;;
16506;SDS011;8366;51.020;7.642;2024-01-16T04:22:53;16.93;;;10.40;;
16506;SDS011;8366;51.020;7.642;2024-01-16T04:25:21;16.97;;;11.57;;
16506;SDS011;8366;51.020;7.642;2024-01-16T04:27:47;19.00;;;11.37;;
16506;SDS011;8366;51.020;7.642;2024-01-16T04:30:14;16.77;;;12.10;;
16506;SDS011;8366;51.020;7.642;2024-01-16T04:32:40;18.50;;;11.37;;
16506;SDS011;8366;51.020;7.642;2024-01-16T04:35:07;16.60;;;10.97;;
16506;SDS011;8366;51.020;7.642;2024-01-16T04:37:34;16.73;;;11.20;;
16506;SDS011;8366;51.020;7.642;2024-01-16T04:40:00;17.90;;;11.63;;
16506;SDS011;8366;51.020;7.642;2024-01-16T04:42:28;18.43;;;11.70;;
16506;SDS011;8366;51.020;7.642;2024-01-16T04:44:55;17.03;;;12.33;;
16506;SDS011;8366;51.020;7.642;2024-01-16T04:47:21;17.53;;;12.50;;
16506;SDS011;8366;51.020;7.642;2024-01-16T04:49:48;14.33;;;10.97;;
16506;SDS011;8366;51.020;7.642;2024-01-16T04:52:14;15.70;;;10.03;;
16506;SDS011;8366;51.020;7.642;2024-01-16T04:54:41;14.43;;;11.33;;
16506;SDS011;8366;51.020;7.642;2024-01-16T04:57:10;14.73;;;9.73;;
16506;SDS011;8366;51.020;7.642;2024-01-16T04:59:39;15.57;;;10.90;;
16506;SDS011;8366;51.020;7.642;2024-01-16T05:02:05;14.30;;;10.60;;
16506;SDS011;8366;51.020;7.642;2024-01-16T05:04:32;13.27;;;9.37;;
16506;SDS011;8366;51.020;7.642;2024-01-16T05:06:58;16.47;;;10.47;;
16506;SDS011;8366;51.020;7.642;2024-01-16T05:09:25;16.73;;;11.10;;
16506;SDS011;8366;51.020;7.642;2024-01-16T05:11:51;17.33;;;11.27;;
16506;SDS011;8366;51.020;7.642;2024-01-16T05:14:17;18.83;;;11.77;;
16506;SDS011;8366;51.020;7.642;2024-01-16T05:16:45;18.53;;;11.60;;
16506;SDS011;8366;51.020;7.642;2024-01-16T05:19:12;17.63;;;10.90;;
16506;SDS011;8366;51.020;7.642;2024-01-16T05:21:40;15.33;;;11.67;;
16506;SDS011;8366;51.020;7.642;2024-01-16T05:24:07;16.20;;;10.53;;
16506;SDS011;8366;51.020;7.642;2024-01-16T05:26:34;15.43;;;10.87;;
16506;SDS011;8366;51.020;7.642;2024-01-16T05:29:00;16.47;;;11.17;;
16506;SDS011;8366;51.020;7.642;2024-01-16T05:31:27;15.80;;;10.80;;
16506;SDS011;8366;51.020;7.642;2024-01-16T05:33:54;15.07;;;10.40;;
16506;SDS011;8366;51.020;7.642;2024-01-16T05:36:21;16.40;;;10.67;;
16506;SDS011;8366;51.020;7.642;2024-01-16T05:38:47;17.40;;;10.50;;
16506;SDS011;8366;51.020;7.642;2024-01-16T05:41:15;14.67;;;9.87;;
16506;SDS011;8366;51.020;7.642;2024-01-16T05:43:41;17.70;;;11.47;;
16506;SDS011;8366;51.020;7.642;2024-01-16T05:46:08;16.07;;;10.53;;
16506;SDS011;8366;51.020;7.642;2024-01-16T05:48:34;14.73;;;11.23;;
16506;SDS011;8366;51.020;7.642;2024-01-16T05:51:02;16.73;;;10.37;;
16506;SDS011;8366;51.020;7.642;2024-01-16T05:53:29;17.20;;;10.13;;
16506;SDS011;8366;51.020;7.642;2024-01-16T05:55:56;17.70;;;10.67;;
16506;SDS011;8366;51.020;7.642;2024-01-16T05:58:23;14.33;;;10.07;;
16506;SDS011;8366;51.020;7.642;2024-01-16T06:00:49;16.10;;;10.73;;
16506;SDS011;8366;51.020;7.642;2024-01-16T06:03:16;15.17;;;9.87;;
16506;SDS011;8366;51.020;7.642;2024-01-16T06:05:42;14.67;;;9.80;;
16506;SDS011;8366;51.020;7.642;2024-01-16T06:08:11;15.40;;;9.40;;
16506;SDS011;8366;51.020;7.642;2024-01-16T06:10:39;14.80;;;10.10;;
16506;SDS011;8366;51.020;7.642;2024-01-16T06:13:06;14.13;;;10.30;;
16506;SDS011;8366;51.020;7.642;2024-01-16T06:15:32;15.83;;;10.23;;
16506;SDS011;8366;51.020;7.642;2024-01-16T06:17:59;17.87;;;10.27;;
16506;SDS011;8366;51.020;7.642;2024-01-16T06:20:25;16.00;;;10.97;;
16506;SDS011;8366;51.020;7.642;2024-01-16T06:22:53;14.37;;;11.27;;
16506;SDS011;8366;51.020;7.642;2024-01-16T06:25:21;17.60;;;11.33;;
16506;SDS011;8366;51.020;7.642;2024-01-16T06:27:48;18.83;;;11.77;;
16506;SDS011;8366;51.020;7.642;2024-01-16T06:30:14;18.42;;;13.13;;
16506;SDS011;8366;51.020;7.642;2024-01-16T06:32:41;18.67;;;11.63;;
16506;SDS011;8366;51.020;7.642;2024-01-16T06:35:07;17.77;;;12.20;;
16506;SDS011;8366;51.020;7.642;2024-01-16T06:37:34;18.63;;;11.87;;
16506;SDS011;8366;51.020;7.642;2024-01-16T06:40:01;18.70;;;11.73;;
16506;SDS011;8366;51.020;7.642;2024-01-16T06:42:30;18.87;;;11.80;;
16506;SDS011;8366;51.020;7.642;2024-01-16T06:44:57;17.27;;;11.40;;
16506;SDS011;8366;51.020;7.642;2024-01-16T06:47:23;16.70;;;10.90;;
16506;SDS011;8366;51.020;7.642;2024-01-16T06:49:50;18.90;;;10.97;;
16506;SDS011;8366;51.020;7.642;2024-01-16T06:52:16;14.57;;;10.90;;
16506;SDS011;8366;51.020;7.642;2024-01-16T06:54:43;16.43;;;10.00;;
16506;SDS011;8366;51.020;7.642;2024-01-16T06:57:09;17.60;;;10.70;;
16506;SDS011;8366;51.020;7.642;2024-01-16T06:59:38;18.47;;;10.23;;
16506;SDS011;8366;51.020;7.642;2024-01-16T07:02:04;17.07;;;10.53;;
16506;SDS011;8366;51.020;7.642;2024-01-16T07:04:31;17.13;;;10.63;;
16506;SDS011;8366;51.020;7.642;2024-01-16T07:06:57;16.33;;;10.27;;
16506;SDS011;8366;51.020;7.642;2024-01-16T07:09:24;15.10;;;9.73;;
16506;SDS011;8366;51.020;7.642;2024-01-16T07:11:52;16.30;;;11.30;;
16506;SDS011;8366;51.020;7.642;2024-01-16T07:14:18;15.90;;;10.27;;
16506;SDS011;8366;51.020;7.642;2024-01-16T07:16:46;15.40;;;9.93;;
16506;SDS011;8366;51.020;7.642;2024-01-16T07:19:14;11.03;;;6.67;;
16506;SDS011;8366;51.020;7.642;2024-01-16T07:21:41;18.10;;;11.27;;
16506;SDS011;8366;51.020;7.642;2024-01-16T07:24:09;16.30;;;10.40;;
16506;SDS011;8366;51.020;7.642;2024-01-16T07:26:37;16.67;;;10.30;;
16506;SDS011;8366;51.020;7.642;2024-01-16T07:29:03;14.20;;;9.20;;
16506;SDS011;8366;51.020;7.642;2024-01-16T07:31:30;18.40;;;10.83;;
16506;SDS011;8366;51.020;7.642;2024-01-16T07:33:58;16.87;;;10.87;;
16506;SDS011;8366;51.020;7.642;2024-01-16T07:36:24;14.20;;;9.23;;
16506;SDS011;8366;51.020;7.642;2024-01-16T07:38:51;14.67;;;10.27;;
16506;SDS011;8366;51.020;7.642;2024-01-16T07:41:16;17.37;;;8.47;;
16506;SDS011;8366;51.020;7.642;2024-01-16T07:43:43;18.23;;;9.77;;
16506;SDS011;8366;51.020;7.642;2024-01-16T07:46:10;17.20;;;9.90;;
16506;SDS011;8366;51.020;7.642;2024-01-16T07:48:36;18.00;;;10.80;;
16506;SDS011;8366;51.020;7.642;2024-01-16T07:51:05;17.47;;;10.80;;
16506;SDS011;8366;51.020;7.642;2024-01-16T07:53:31;19.40;;;11.07;;
16506;SDS011;8366;51.020;7.642;2024-01-16T07:55:58;16.60;;;9.47;;
16506;SDS011;8366;51.020;7.642;2024-01-16T07:58:24;13.70;;;7.10;;
16506;SDS011;8366;51.020;7.642;2024-01-16T08:00:51;20.53;;;9.73;;
16506;SDS011;8366;51.020;7.642;2024-01-16T08:03:17;19.07;;;10.23;;
16506;SDS011;8366;51.020;7.642;2024-01-16T08:05:44;18.13;;;10.33;;
16506;SDS011;8366;51.020;7.642;2024-01-16T08:08:13;17.73;;;10.13;;
16506;SDS011;8366;51.020;7.642;2024-01-16T08:10:40;19.97;;;10.93;;
16506;SDS011;8366;51.020;7.642;2024-01-16T08:13:07;18.17;;;10.33;;
16506;SDS011;8366;51.020;7.642;2024-01-16T08:15:34;15.50;;;9.17;;
16506;SDS011;8366;51.020;7.642;2024-01-16T08:18:01;20.77;;;9.10;;
16506;SDS011;8366;51.020;7.642;2024-01-16T08:20:27;18.47;;;10.13;;
16506;SDS011;8366;51.020;7.642;2024-01-16T08:22:54;16.67;;;9.57;;
16506;SDS011;8366;51.020;7.642;2024-01-16T08:25:22;18.90;;;9.27;;
16506;SDS011;8366;51.020;7.642;2024-01-16T08:27:48;17.57;;;8.97;;
16506;SDS011;8366;51.020;7.642;2024-01-16T08:30:15;16.67;;;8.90;;
16506;SDS011;8366;51.020;7.642;2024-01-16T08:32:41;14.77;;;8.43;;
16506;SDS011;8366;51.020;7.642;2024-01-16T08:35:08;16.43;;;8.40;;
16506;SDS011;8366;51.020;7.642;2024-01-16T08:37:35;12.30;;;7.43;;
16506;SDS011;8366;51.020;7.642;2024-01-16T08:40:01;13.87;;;8.47;;
16506;SDS011;8366;51.020;7.642;2024-01-16T08:42:30;14.33;;;7.50;;
16506;SDS011;8366;51.020;7.642;2024-01-16T08:44:57;15.83;;;8.37;;
16506;SDS011;8366;51.020;7.642;2024-01-16T08:47:23;12.57;;;7.53;;
16506;SDS011;8366;51.020;7.642;2024-01-16T08:49:50;11.80;;;7.37;;
16506;SDS011;8366;51.020;7.642;2024-01-16T08:52:17;11.50;;;6.30;;
16506;SDS011;8366;51.020;7.642;2024-01-16T08:54:43;10.90;;;6.83;;
16506;SDS011;8366;51.020;7.642;2024-01-16T08:57:10;13.67;;;6.77;;
16506;SDS011;8366;51.020;7.642;2024-01-16T08:59:39;11.40;;;5.60;;
16506;SDS011;8366;51.020;7.642;2024-01-16T09:02:06;9.67;;;5.53;;
16506;SDS011;8366;51.020;7.642;2024-01-16T09:04:32;11.53;;;5.50;;
16506;SDS011;8366;51.020;7.642;2024-01-16T09:06:59;13.40;;;6.03;;
16506;SDS011;8366;51.020;7.642;2024-01-16T09:09:26;10.23;;;5.73;;
16506;SDS011;8366;51.020;7.642;2024-01-16T09:11:52;11.50;;;5.20;;
16506;SDS011;8366;51.020;7.642;2024-01-16T09:14:18;11.30;;;5.17;;
16506;SDS011;8366;51.020;7.642;2024-01-16T09:16:46;13.07;;;4.93;;
16506;SDS011;8366;51.020;7.642;2024-01-16T09:19:13;10.40;;;4.40;;
16506;SDS011;8366;51.020;7.642;2024-01-16T09:21:39;8.53;;;4.07;;
16506;SDS011;8366;51.020;7.642;2024-01-16T09:24:06;9.67;;;3.83;;
16506;SDS011;8366;51.020;7.642;2024-01-16T09:26:33;12.17;;;3.93;;
16506;SDS011;8366;51.020;7.642;2024-01-16T09:29:00;9.57;;;4.20;;
16506;SDS011;8366;51.020;7.642;2024-01-16T09:31:26;11.73;;;4.00;;
16506;SDS011;8366;51.020;7.642;2024-01-16T09:33:54;10.13;;;3.73;;
16506;SDS011;8366;51.020;7.642;2024-01-16T09:36:20;10.27;;;3.40;;
16506;SDS011;8366;51.020;7.642;2024-01-16T09:38:47;8.13;;;3.93;;
16506;SDS011;8366;51.020;7.642;2024-01-16T09:41:13;8.03;;;3.30;;
16506;SDS011;8366;51.020;7.642;2024-01-16T09:43:40;9.07;;;3.60;;
16506;SDS011;8366;51.020;7.642;2024-01-16T09:46:07;10.97;;;3.93;;
16506;SDS011;8366;51.020;7.642;2024-01-16T09:48:35;10.03;;;3.97;;
16506;SDS011;8366;51.020;7.642;2024-01-16T09:51:03;9.23;;;3.30;;
16506;SDS011;8366;51.020;7.642;2024-01-16T09:53:30;10.97;;;3.30;;
16506;SDS011;8366;51.020;7.642;2024-01-16T09:55:57;10.77;;;3.57;;
16506;SDS011;8366;51.020;7.642;2024-01-16T09:58:28;10.63;;;3.10;;
16506;SDS011;8366;51.020;7.642;2024-01-16T10:00:59;9.70;;;3.03;;
16506;SDS011;8366;51.020;7.642;2024-01-16T10:03:25;11.77;;;3.73;;
16506;SDS011;8366;51.020;7.642;2024-01-16T10:05:55;3.70;;;2.33;;
16506;SDS011;8366;51.020;7.642;2024-01-16T10:08:23;9.83;;;3.50;;
16506;SDS011;8366;51.020;7.642;2024-01-16T10:10:49;7.40;;;2.80;;
16506;SDS011;8366;51.020;7.642;2024-01-16T10:13:16;7.87;;;2.83;;
16506;SDS011;8366;51.020;7.642;2024-01-16T10:15:43;9.23;;;2.73;;
16506;SDS011;8366;51.020;7.642;2024-01-16T10:18:21;6.63;;;2.80;;
16506;SDS011;8366;51.020;7.642;2024-01-16T10:20:49;6.10;;;2.70;;
16506;SDS011;8366;51.020;7.642;2024-01-16T10:23:24;6.93;;;2.90;;
16506;SDS011;8366;51.020;7.642;2024-01-16T10:26:04;8.90;;;2.93;;
16506;SDS011;8366;51.020;7.642;2024-01-16T10:28:31;12.10;;;2.70;;
16506;SDS011;8366;51.020;7.642;2024-01-16T10:31:01;10.03;;;3.00;;
16506;SDS011;8366;51.020;7.642;2024-01-16T10:33:28;6.70;;;2.40;;
16506;SDS011;8366;51.020;7.642;2024-01-16T10:35:59;7.80;;;2.60;;
16506;SDS011;8366;51.020;7.642;2024-01-16T10:38:35;8.53;;;2.50;;
16506;SDS011;8366;51.020;7.642;2024-01-16T10:41:09;9.63;;;2.70;;
16506;SDS011;8366;51.020;7.642;2024-01-16T10:43:36;9.03;;;2.40;;
16506;SDS011;8366;51.020;7.642;2024-01-16T10:46:07;7.83;;;1.90;;
16506;SDS011;8366;51.020;7.642;2024-01-16T10:48:34;7.87;;;2.70;;
16506;SDS011;8366;51.020;7.642;2024-01-16T10:51:02;8.43;;;2.30;;
16506;SDS011;8366;51.020;7.642;2024-01-16T10:53:28;8.37;;;2.13;;
16506;SDS011;8366;51.020;7.642;2024-01-16T10:56:01;6.53;;;2.30;;
16506;SDS011;8366;51.020;7.642;2024-01-16T10:58:28;5.47;;;2.10;;
16506;SDS011;8366;51.020;7.642;2024-01-16T11:00:57;8.00;;;2.70;;
16506;SDS011;8366;51.020;7.642;2024-01-16T11:03:29;8.33;;;2.30;;
16506;SDS011;8366;51.020;7.642;2024-01-16T11:06:01;7.07;;;2.70;;
16506;SDS011;8366;51.020;7.642;2024-01-16T11:08:31;6.07;;;2.30;;
16506;SDS011;8366;51.020;7.642;2024-01-16T11:10:58;6.60;;;2.93;;
16506;SDS011;8366;51.020;7.642;2024-01-16T11:13:28;5.37;;;2.43;;
16506;SDS011;8366;51.020;7.642;2024-01-16T11:15:56;8.27;;;2.70;;
16506;SDS011;8366;51.020;7.642;2024-01-16T11:18:24;9.60;;;2.97;;
16506;SDS011;8366;51.020;7.642;2024-01-16T11:20:51;9.07;;;2.93;;
16506;SDS011;8366;51.020;7.642;2024-01-16T11:23:19;8.60;;;2.77;;
16506;SDS011;8366;51.020;7.642;2024-01-16T11:25:46;7.90;;;3.00;;
16506;SDS011;8366;51.020;7.642;2024-01-16T11:28:14;7.90;;;3.17;;
16506;SDS011;8366;51.020;7.642;2024-01-16T11:30:41;8.53;;;3.47;;
16506;SDS011;8366;51.020;7.642;2024-01-16T11:33:16;8.77;;;3.13;;
16506;SDS011;8366;51.020;7.642;2024-01-16T11:39:09;9.13;;;2.80;;
16506;SDS011;8366;51.020;7.642;2024-01-16T11:44:38;10.00;;;2.97;;
16506;SDS011;8366;51.020;7.642;2024-01-16T11:47:06;6.27;;;2.60;;
16506;SDS011;8366;51.020;7.642;2024-01-16T11:49:33;6.83;;;2.80;;
16506;SDS011;8366;51.020;7.642;2024-01-16T11:51:59;11.20;;;3.60;;
16506;SDS011;8366;51.020;7.642;2024-01-16T11:54:26;7.33;;;3.03;;
16506;SDS011;8366;51.020;7.642;2024-01-16T11:56:57;7.00;;;2.90;;
16506;SDS011;8366;51.020;7.642;2024-01-16T12:00:01;8.37;;;4.67;;
16506;SDS011;8366;51.020;7.642;2024-01-16T12:02:48;7.97;;;2.77;;
16506;SDS011;8366;51.020;7.642;2024-01-16T12:05:17;8.53;;;2.90;;
16506;SDS011;8366;51.020;7.642;2024-01-16T12:07:48;8.97;;;3.00;;
16506;SDS011;8366;51.020;7.642;2024-01-16T12:10:15;7.80;;;3.70;;
16506;SDS011;8366;51.020;7.642;2024-01-16T12:12:42;9.10;;;4.33;;
16506;SDS011;8366;51.020;7.642;2024-01-16T12:15:17;8.67;;;3.67;;
16506;SDS011;8366;51.020;7.642;2024-01-16T12:17:52;7.17;;;3.27;;
16506;SDS011;8366;51.020;7.642;2024-01-16T12:20:19;6.70;;;3.10;;
16506;SDS011;8366;51.020;7.642;2024-01-16T12:22:52;6.50;;;2.67;;
16506;SDS011;8366;51.020;7.642;2024-01-16T12:25:19;7.47;;;3.23;;
16506;SDS011;8366;51.020;7.642;2024-01-16T12:27:46;9.07;;;3.87;;
16506;SDS011;8366;51.020;7.642;2024-01-16T12:30:13;6.37;;;3.07;;
16506;SDS011;8366;51.020;7.642;2024-01-16T12:32:42;9.77;;;3.90;;
16506;SDS011;8366;51.020;7.642;2024-01-16T12:35:08;10.67;;;3.60;;
16506;SDS011;8366;51.020;7.642;2024-01-16T12:37:35;8.87;;;3.10;;
16506;SDS011;8366;51.020;7.642;2024-01-16T12:40:01;5.10;;;2.40;;
16506;SDS011;8366;51.020;7.642;2024-01-16T12:42:31;7.43;;;2.80;;
16506;SDS011;8366;51.020;7.642;2024-01-16T12:44:58;9.87;;;3.17;;
16506;SDS011;8366;51.020;7.642;2024-01-16T12:47:24;9.30;;;2.70;;
16506;SDS011;8366;51.020;7.642;2024-01-16T12:49:52;5.57;;;3.10;;
16506;SDS011;8366;51.020;7.642;2024-01-16T12:52:19;7.90;;;2.87;;
16506;SDS011;8366;51.020;7.642;2024-01-16T12:54:46;7.23;;;2.90;;
16506;SDS011;8366;51.020;7.642;2024-01-16T12:57:17;7.93;;;2.73;;
16506;SDS011;8366;51.020;7.642;2024-01-16T12:59:45;8.07;;;2.57;;
16506;SDS011;8366;51.020;7.642;2024-01-16T13:02:19;7.73;;;2.90;;
16506;SDS011;8366;51.020;7.642;2024-01-16T13:04:46;8.37;;;3.10;;
16506;SDS011;8366;51.020;7.642;2024-01-16T13:07:16;7.50;;;2.80;;
16506;SDS011;8366;51.020;7.642;2024-01-16T13:09:44;9.80;;;3.00;;
16506;SDS011;8366;51.020;7.642;2024-01-16T13:12:10;7.73;;;2.73;;
16506;SDS011;8366;51.020;7.642;2024-01-16T13:14:45;5.40;;;2.67;;
16506;SDS011;8366;51.020;7.642;2024-01-16T13:17:12;7.50;;;2.70;;
16506;SDS011;8366;51.020;7.642;2024-01-16T13:19:39;7.93;;;2.83;;
16506;SDS011;8366;51.020;7.642;2024-01-16T13:22:08;7.77;;;2.77;;
16506;SDS011;8366;51.020;7.642;2024-01-16T13:24:35;4.87;;;2.27;;
16506;SDS011;8366;51.020;7.642;2024-01-16T13:27:02;9.60;;;3.40;;
16506;SDS011;8366;51.020;7.642;2024-01-16T13:29:29;4.83;;;2.60;;
16506;SDS011;8366;51.020;7.642;2024-01-16T13:32:00;5.67;;;3.03;;
16506;SDS011;8366;51.020;7.642;2024-01-16T13:34:26;6.63;;;2.80;;
16506;SDS011;8366;51.020;7.642;2024-01-16T13:36:54;7.23;;;2.77;;
16506;SDS011;8366;51.020;7.642;2024-01-16T13:39:24;9.23;;;2.77;;
16506;SDS011;8366;51.020;7.642;2024-01-16T13:41:52;8.07;;;2.73;;
16506;SDS011;8366;51.020;7.642;2024-01-16T13:44:19;6.13;;;2.57;;
16506;SDS011;8366;51.020;7.642;2024-01-16T13:46:45;6.67;;;2.70;;
16506;SDS011;8366;51.020;7.642;2024-01-16T13:49:11;6.13;;;2.57;;
16506;SDS011;8366;51.020;7.642;2024-01-16T13:51:38;7.10;;;2.60;;
16506;SDS011;8366;51.020;7.642;2024-01-16T13:54:05;7.73;;;3.20;;
16506;SDS011;8366;51.020;7.642;2024-01-16T13:56:31;8.70;;;2.80;;
16506;SDS011;8366;51.020;7.642;2024-01-16T13:58:59;9.07;;;2.83;;
16506;SDS011;8366;51.020;7.642;2024-01-16T14:01:27;7.70;;;2.70;;
16506;SDS011;8366;51.020;7.642;2024-01-16T14:03:53;7.40;;;2.30;;
16506;SDS011;8366;51.020;7.642;2024-01-16T14:06:20;7.37;;;2.40;;
16506;SDS011;8366;51.020;7.642;2024-01-16T14:08:46;6.57;;;2.37;;
16506;SDS011;8366;51.020;7.642;2024-01-16T14:11:13;5.20;;;2.23;;
16506;SDS011;8366;51.020;7.642;2024-01-16T14:13:39;6.20;;;2.57;;
16506;SDS011;8366;51.020;7.642;2024-01-16T14:16:07;9.00;;;2.17;;
16506;SDS011;8366;51.020;7.642;2024-01-16T14:18:34;8.17;;;2.30;;
16506;SDS011;8366;51.020;7.642;2024-01-16T14:21:00;8.03;;;2.63;;
16506;SDS011;8366;51.020;7.642;2024-01-16T14:23:29;4.80;;;2.87;;
16506;SDS011;8366;51.020;7.642;2024-01-16T14:25:56;8.90;;;3.37;;
16506;SDS011;8366;51.020;7.642;2024-01-16T14:28:22;5.10;;;2.97;;
16506;SDS011;8366;51.020;7.642;2024-01-16T14:30:51;8.33;;;3.30;;
16506;SDS011;8366;51.020;7.642;2024-01-16T14:33:19;5.03;;;2.83;;
16506;SDS011;8366;51.020;7.642;2024-01-16T14:35:45;7.40;;;3.00;;
16506;SDS011;8366;51.020;7.642;2024-01-16T14:38:12;7.80;;;3.00;;
16506;SDS011;8366;51.020;7.642;2024-01-16T14:40:38;7.40;;;2.90;;
16506;SDS011;8366;51.020;7.642;2024-01-16T14:43:05;8.03;;;3.33;;
16506;SDS011;8366;51.020;7.642;2024-01-16T14:45:32;9.40;;;3.33;;
16506;SDS011;8366;51.020;7.642;2024-01-16T14:47:58;8.00;;;3.10;;
16506;SDS011;8366;51.020;7.642;2024-01-16T14:50:26;7.70;;;3.27;;
16506;SDS011;8366;51.020;7.642;2024-01-16T14:52:52;6.93;;;3.60;;
16506;SDS011;8366;51.020;7.642;2024-01-16T14:55:19;9.83;;;3.10;;
16506;SDS011;8366;51.020;7.642;2024-01-16T14:57:47;7.43;;;3.10;;